sensor_id;sensor_type;location;lat;lon;timestamp;P1;durP1;ratioP1;P2;durP2;ratioP2
3873;SDS011;1952;50.872;6.692;2022-10-18T00:30:18;10.20;;;7.73;;
3873;SDS011;1952;50.872;6.692;2022-10-18T00:32:46;8.10;;;7.30;;
3873;SDS011;1952;50.872;6.692;2022-10-18T00:35:15;9.27;;;7.60;;
3873;SDS011;1952;50.872;6.692;2022-10-18T00:37:43;8.67;;;6.90;;
3873;SDS011;1952;50.872;6.692;2022-10-18T00:40:16;8.93;;;8.03;;
3873;SDS011;1952;50.872;6.692;2022-10-18T00:42:44;7.77;;;6.43;;
3873;SDS011;1952;50.872;6.692;2022-10-18T00:45:18;10.63;;;8.37;;
3873;SDS011;1952;50.872;6.692;2022-10-18T00:47:54;10.80;;;7.60;;
3873;SDS011;1952;50.872;6.692;2022-10-18T00:50:25;8.57;;;7.60;;
3873;SDS011;1952;50.872;6.692;2022-10-18T00:52:56;9.53;;;8.50;;
3873;SDS011;1952;50.872;6.692;2022-10-18T00:55:32;9.70;;;8.57;;
3873;SDS011;1952;50.872;6.692;2022-10-18T00:58:03;11.17;;;9.20;;
3873;SDS011;1952;50.872;6.692;2022-10-18T01:00:33;11.87;;;10.37;;
3873;SDS011;1952;50.872;6.692;2022-10-18T01:03:04;13.67;;;8.07;;
3873;SDS011;1952;50.872;6.692;2022-10-18T01:05:34;7.83;;;6.50;;
3873;SDS011;1952;50.872;6.692;2022-10-18T01:11:04;8.47;;;6.70;;
3873;SDS011;1952;50.872;6.692;2022-10-18T01:13:40;9.90;;;7.37;;
3873;SDS011;1952;50.872;6.692;2022-10-18T01:16:22;8.40;;;7.27;;
3873;SDS011;1952;50.872;6.692;2022-10-18T01:18:59;7.37;;;6.60;;
3873;SDS011;1952;50.872;6.692;2022-10-18T01:21:35;7.33;;;6.67;;
3873;SDS011;1952;50.872;6.692;2022-10-18T01:24:29;8.47;;;7.00;;
3873;SDS011;1952;50.872;6.692;2022-10-18T01:27:30;8.03;;;7.33;;
3873;SDS011;1952;50.872;6.692;2022-10-18T01:33:11;8.40;;;7.30;;
3873;SDS011;1952;50.872;6.692;2022-10-18T01:35:52;7.20;;;6.60;;
3873;SDS011;1952;50.872;6.692;2022-10-18T01:38:30;16.63;;;8.73;;
3873;SDS011;1952;50.872;6.692;2022-10-18T01:40:59;7.23;;;6.53;;
3873;SDS011;1952;50.872;6.692;2022-10-18T01:43:29;11.07;;;9.30;;
3873;SDS011;1952;50.872;6.692;2022-10-18T01:45:59;10.17;;;7.90;;
3873;SDS011;1952;50.872;6.692;2022-10-18T01:48:31;9.03;;;8.13;;
3873;SDS011;1952;50.872;6.692;2022-10-18T01:51:03;11.33;;;8.00;;
3873;SDS011;1952;50.872;6.692;2022-10-18T01:53:36;11.23;;;9.93;;
3873;SDS011;1952;50.872;6.692;2022-10-18T01:56:19;8.77;;;7.87;;
3873;SDS011;1952;50.872;6.692;2022-10-18T01:59:15;15.33;;;8.33;;
3873;SDS011;1952;50.872;6.692;2022-10-18T02:01:52;8.50;;;7.70;;
3873;SDS011;1952;50.872;6.692;2022-10-18T02:04:30;10.40;;;8.67;;
3873;SDS011;1952;50.872;6.692;2022-10-18T02:07:05;12.67;;;11.00;;
3873;SDS011;1952;50.872;6.692;2022-10-18T02:09:45;10.00;;;7.23;;
3873;SDS011;1952;50.872;6.692;2022-10-18T02:12:15;11.10;;;9.20;;
3873;SDS011;1952;50.872;6.692;2022-10-18T02:14:45;11.93;;;8.63;;
3873;SDS011;1952;50.872;6.692;2022-10-18T02:17:15;15.10;;;11.97;;
3873;SDS011;1952;50.872;6.692;2022-10-18T02:19:49;14.20;;;9.97;;
3873;SDS011;1952;50.872;6.692;2022-10-18T02:22:19;12.80;;;11.47;;
3873;SDS011;1952;50.872;6.692;2022-10-18T02:24:51;15.77;;;12.17;;
3873;SDS011;1952;50.872;6.692;2022-10-18T02:27:27;16.83;;;12.10;;
3873;SDS011;1952;50.872;6.692;2022-10-18T02:29:55;16.67;;;14.40;;
3873;SDS011;1952;50.872;6.692;2022-10-18T02:32:25;16.30;;;14.17;;
3873;SDS011;1952;50.872;6.692;2022-10-18T02:35:07;18.97;;;14.33;;
3873;SDS011;1952;50.872;6.692;2022-10-18T02:37:46;12.90;;;11.20;;
3873;SDS011;1952;50.872;6.692;2022-10-18T02:40:16;14.57;;;12.80;;
3873;SDS011;1952;50.872;6.692;2022-10-18T02:42:46;17.03;;;13.40;;
3873;SDS011;1952;50.872;6.692;2022-10-18T02:45:17;16.37;;;13.27;;
3873;SDS011;1952;50.872;6.692;2022-10-18T02:47:45;18.07;;;13.73;;
3873;SDS011;1952;50.872;6.692;2022-10-18T02:50:16;16.07;;;12.97;;
3873;SDS011;1952;50.872;6.692;2022-10-18T02:52:44;13.67;;;12.10;;
3873;SDS011;1952;50.872;6.692;2022-10-18T02:55:13;17.20;;;13.87;;
3873;SDS011;1952;50.872;6.692;2022-10-18T02:57:41;18.67;;;13.03;;
3873;SDS011;1952;50.872;6.692;2022-10-18T03:00:10;15.30;;;12.27;;
3873;SDS011;1952;50.872;6.692;2022-10-18T03:02:39;13.60;;;11.30;;
3873;SDS011;1952;50.872;6.692;2022-10-18T03:05:12;15.20;;;12.50;;
3873;SDS011;1952;50.872;6.692;2022-10-18T03:07:42;17.20;;;13.43;;
3873;SDS011;1952;50.872;6.692;2022-10-18T03:10:10;14.90;;;12.43;;
3873;SDS011;1952;50.872;6.692;2022-10-18T03:12:38;15.43;;;13.47;;
3873;SDS011;1952;50.872;6.692;2022-10-18T03:15:12;15.00;;;12.23;;
3873;SDS011;1952;50.872;6.692;2022-10-18T03:17:41;18.90;;;12.73;;
3873;SDS011;1952;50.872;6.692;2022-10-18T03:20:09;16.67;;;12.67;;
3873;SDS011;1952;50.872;6.692;2022-10-18T03:22:45;18.03;;;14.73;;
3873;SDS011;1952;50.872;6.692;2022-10-18T03:25:19;15.30;;;11.70;;
3873;SDS011;1952;50.872;6.692;2022-10-18T03:27:47;13.20;;;11.13;;
3873;SDS011;1952;50.872;6.692;2022-10-18T03:30:15;13.80;;;11.20;;
3873;SDS011;1952;50.872;6.692;2022-10-18T03:32:44;14.17;;;11.60;;
3873;SDS011;1952;50.872;6.692;2022-10-18T03:35:12;15.43;;;13.50;;
3873;SDS011;1952;50.872;6.692;2022-10-18T03:37:40;13.90;;;11.27;;
3873;SDS011;1952;50.872;6.692;2022-10-18T03:40:17;15.23;;;11.63;;
3873;SDS011;1952;50.872;6.692;2022-10-18T03:42:46;12.17;;;10.13;;
3873;SDS011;1952;50.872;6.692;2022-10-18T03:45:28;9.90;;;8.90;;
3873;SDS011;1952;50.872;6.692;2022-10-18T03:47:57;15.97;;;14.10;;
3873;SDS011;1952;50.872;6.692;2022-10-18T03:50:26;13.77;;;11.57;;
3873;SDS011;1952;50.872;6.692;2022-10-18T03:52:54;15.73;;;12.10;;
3873;SDS011;1952;50.872;6.692;2022-10-18T03:55:29;18.23;;;13.67;;
3873;SDS011;1952;50.872;6.692;2022-10-18T03:57:58;13.93;;;12.23;;
3873;SDS011;1952;50.872;6.692;2022-10-18T04:00:31;15.13;;;13.13;;
3873;SDS011;1952;50.872;6.692;2022-10-18T04:02:59;17.17;;;14.93;;
3873;SDS011;1952;50.872;6.692;2022-10-18T04:05:28;15.07;;;12.63;;
3873;SDS011;1952;50.872;6.692;2022-10-18T04:07:57;14.57;;;12.30;;
3873;SDS011;1952;50.872;6.692;2022-10-18T04:10:31;21.83;;;14.40;;
3873;SDS011;1952;50.872;6.692;2022-10-18T04:12:59;17.60;;;14.17;;
3873;SDS011;1952;50.872;6.692;2022-10-18T04:15:29;16.47;;;13.20;;
3873;SDS011;1952;50.872;6.692;2022-10-18T04:17:58;20.40;;;14.30;;
3873;SDS011;1952;50.872;6.692;2022-10-18T04:20:26;18.50;;;14.70;;
3873;SDS011;1952;50.872;6.692;2022-10-18T04:23:00;17.97;;;15.03;;
3873;SDS011;1952;50.872;6.692;2022-10-18T04:25:28;17.23;;;13.17;;
3873;SDS011;1952;50.872;6.692;2022-10-18T04:31:11;18.80;;;14.20;;
3873;SDS011;1952;50.872;6.692;2022-10-18T04:33:44;18.70;;;14.20;;
3873;SDS011;1952;50.872;6.692;2022-10-18T04:36:18;18.23;;;13.80;;
3873;SDS011;1952;50.872;6.692;2022-10-18T04:38:46;19.27;;;14.90;;
3873;SDS011;1952;50.872;6.692;2022-10-18T04:41:15;19.70;;;14.37;;
3873;SDS011;1952;50.872;6.692;2022-10-18T04:43:48;19.17;;;13.57;;
3873;SDS011;1952;50.872;6.692;2022-10-18T04:46:18;22.53;;;14.73;;
3873;SDS011;1952;50.872;6.692;2022-10-18T04:48:52;17.07;;;13.00;;
3873;SDS011;1952;50.872;6.692;2022-10-18T04:51:25;21.43;;;16.17;;
3873;SDS011;1952;50.872;6.692;2022-10-18T04:53:53;17.60;;;13.50;;
3873;SDS011;1952;50.872;6.692;2022-10-18T04:56:22;19.67;;;14.90;;
3873;SDS011;1952;50.872;6.692;2022-10-18T04:58:51;15.43;;;12.27;;
3873;SDS011;1952;50.872;6.692;2022-10-18T05:01:28;14.17;;;11.07;;
3873;SDS011;1952;50.872;6.692;2022-10-18T05:03:57;13.07;;;11.10;;
3873;SDS011;1952;50.872;6.692;2022-10-18T05:06:32;18.20;;;11.67;;
3873;SDS011;1952;50.872;6.692;2022-10-18T05:09:00;19.80;;;13.73;;
3873;SDS011;1952;50.872;6.692;2022-10-18T05:11:29;17.50;;;13.13;;
3873;SDS011;1952;50.872;6.692;2022-10-18T05:13:58;17.53;;;13.47;;
3873;SDS011;1952;50.872;6.692;2022-10-18T05:16:29;18.40;;;12.10;;
3873;SDS011;1952;50.872;6.692;2022-10-18T05:18:59;18.10;;;12.97;;
3873;SDS011;1952;50.872;6.692;2022-10-18T05:21:31;17.63;;;11.90;;
3873;SDS011;1952;50.872;6.692;2022-10-18T05:23:59;17.87;;;13.50;;
3873;SDS011;1952;50.872;6.692;2022-10-18T05:26:29;20.13;;;14.13;;
3873;SDS011;1952;50.872;6.692;2022-10-18T05:29:00;17.47;;;13.13;;
3873;SDS011;1952;50.872;6.692;2022-10-18T05:31:30;21.83;;;14.97;;
3873;SDS011;1952;50.872;6.692;2022-10-18T05:33:59;22.97;;;12.97;;
3873;SDS011;1952;50.872;6.692;2022-10-18T05:36:27;16.33;;;12.73;;
3873;SDS011;1952;50.872;6.692;2022-10-18T05:38:56;17.80;;;12.27;;
3873;SDS011;1952;50.872;6.692;2022-10-18T05:41:29;17.80;;;13.30;;
3873;SDS011;1952;50.872;6.692;2022-10-18T05:44:01;19.47;;;14.30;;
3873;SDS011;1952;50.872;6.692;2022-10-18T05:46:32;19.30;;;13.03;;
3873;SDS011;1952;50.872;6.692;2022-10-18T05:49:07;15.97;;;12.30;;
3873;SDS011;1952;50.872;6.692;2022-10-18T05:51:39;15.13;;;12.07;;
3873;SDS011;1952;50.872;6.692;2022-10-18T07:21:24;19.10;;;15.03;;
3873;SDS011;1952;50.872;6.692;2022-10-18T07:24:20;22.90;;;12.50;;
3873;SDS011;1952;50.872;6.692;2022-10-18T07:26:52;20.43;;;14.37;;
3873;SDS011;1952;50.872;6.692;2022-10-18T07:29:22;14.43;;;12.13;;
3873;SDS011;1952;50.872;6.692;2022-10-18T07:32:04;15.73;;;12.50;;
3873;SDS011;1952;50.872;6.692;2022-10-18T07:34:47;20.50;;;13.07;;
3873;SDS011;1952;50.872;6.692;2022-10-18T07:44:23;16.43;;;12.33;;
3873;SDS011;1952;50.872;6.692;2022-10-18T07:46:52;18.50;;;13.87;;
3873;SDS011;1952;50.872;6.692;2022-10-18T07:49:23;24.60;;;14.87;;
3873;SDS011;1952;50.872;6.692;2022-10-18T07:51:57;18.83;;;13.53;;
3873;SDS011;1952;50.872;6.692;2022-10-18T07:54:54;20.70;;;14.63;;
3873;SDS011;1952;50.872;6.692;2022-10-18T07:57:26;24.77;;;15.33;;
3873;SDS011;1952;50.872;6.692;2022-10-18T08:00:15;18.27;;;14.13;;
3873;SDS011;1952;50.872;6.692;2022-10-18T08:02:53;22.60;;;15.57;;
3873;SDS011;1952;50.872;6.692;2022-10-18T08:05:36;25.70;;;17.07;;
3873;SDS011;1952;50.872;6.692;2022-10-18T08:08:07;20.40;;;15.77;;
3873;SDS011;1952;50.872;6.692;2022-10-18T08:10:50;25.20;;;17.47;;
3873;SDS011;1952;50.872;6.692;2022-10-18T08:13:27;23.27;;;16.13;;
3873;SDS011;1952;50.872;6.692;2022-10-18T08:16:15;22.83;;;15.60;;
3873;SDS011;1952;50.872;6.692;2022-10-18T08:18:48;23.37;;;16.10;;
3873;SDS011;1952;50.872;6.692;2022-10-18T08:21:19;24.23;;;16.30;;
3873;SDS011;1952;50.872;6.692;2022-10-18T08:24:00;24.93;;;18.30;;
3873;SDS011;1952;50.872;6.692;2022-10-18T08:26:40;21.90;;;16.37;;
3873;SDS011;1952;50.872;6.692;2022-10-18T08:40:06;25.33;;;19.80;;
3873;SDS011;1952;50.872;6.692;2022-10-18T08:42:40;21.93;;;16.13;;
3873;SDS011;1952;50.872;6.692;2022-10-18T08:45:35;23.50;;;17.50;;
3873;SDS011;1952;50.872;6.692;2022-10-18T08:48:15;24.50;;;18.17;;
3873;SDS011;1952;50.872;6.692;2022-10-18T08:50:47;28.80;;;17.70;;
3873;SDS011;1952;50.872;6.692;2022-10-18T08:53:18;27.80;;;19.83;;
3873;SDS011;1952;50.872;6.692;2022-10-18T08:55:59;22.93;;;18.20;;
3873;SDS011;1952;50.872;6.692;2022-10-18T08:58:47;28.67;;;21.00;;
3873;SDS011;1952;50.872;6.692;2022-10-18T09:01:39;30.37;;;20.30;;
3873;SDS011;1952;50.872;6.692;2022-10-18T09:04:53;35.50;;;22.90;;
3873;SDS011;1952;50.872;6.692;2022-10-18T09:18:35;43.70;;;23.90;;
3873;SDS011;1952;50.872;6.692;2022-10-18T09:21:44;38.07;;;22.57;;
3873;SDS011;1952;50.872;6.692;2022-10-18T09:24:48;45.70;;;27.13;;
3873;SDS011;1952;50.872;6.692;2022-10-18T09:27:53;35.30;;;24.07;;
3873;SDS011;1952;50.872;6.692;2022-10-18T09:30:53;35.70;;;21.73;;
3873;SDS011;1952;50.872;6.692;2022-10-18T09:53:25;36.47;;;21.63;;
3873;SDS011;1952;50.872;6.692;2022-10-18T09:56:28;36.73;;;26.10;;
3873;SDS011;1952;50.872;6.692;2022-10-18T09:59:19;35.47;;;23.80;;
3873;SDS011;1952;50.872;6.692;2022-10-18T10:02:17;39.33;;;24.33;;
3873;SDS011;1952;50.872;6.692;2022-10-18T10:05:14;46.77;;;26.83;;
3873;SDS011;1952;50.872;6.692;2022-10-18T10:21:30;48.87;;;28.40;;
3873;SDS011;1952;50.872;6.692;2022-10-18T10:24:03;35.53;;;22.27;;
3873;SDS011;1952;50.872;6.692;2022-10-18T10:26:33;44.23;;;26.80;;
3873;SDS011;1952;50.872;6.692;2022-10-18T10:29:49;47.73;;;27.87;;
3873;SDS011;1952;50.872;6.692;2022-10-18T10:32:44;41.00;;;28.73;;
3873;SDS011;1952;50.872;6.692;2022-10-18T10:35:57;39.13;;;25.23;;
3873;SDS011;1952;50.872;6.692;2022-10-18T10:39:09;45.97;;;28.43;;
3873;SDS011;1952;50.872;6.692;2022-10-18T10:41:45;35.53;;;23.50;;
3873;SDS011;1952;50.872;6.692;2022-10-18T10:44:16;47.60;;;31.13;;
3873;SDS011;1952;50.872;6.692;2022-10-18T10:47:00;41.97;;;27.63;;
3873;SDS011;1952;50.872;6.692;2022-10-18T10:52:34;38.03;;;24.30;;
3873;SDS011;1952;50.872;6.692;2022-10-18T10:55:32;39.50;;;27.13;;
3873;SDS011;1952;50.872;6.692;2022-10-18T10:58:02;38.60;;;25.57;;
3873;SDS011;1952;50.872;6.692;2022-10-18T11:00:44;43.33;;;29.53;;
3873;SDS011;1952;50.872;6.692;2022-10-18T11:03:13;37.70;;;27.43;;
3873;SDS011;1952;50.872;6.692;2022-10-18T11:05:55;48.23;;;29.93;;
3873;SDS011;1952;50.872;6.692;2022-10-18T11:08:30;49.30;;;31.97;;
3873;SDS011;1952;50.872;6.692;2022-10-18T11:11:33;47.83;;;30.23;;
3873;SDS011;1952;50.872;6.692;2022-10-18T11:14:18;49.10;;;29.73;;
3873;SDS011;1952;50.872;6.692;2022-10-18T11:16:55;40.23;;;25.57;;
3873;SDS011;1952;50.872;6.692;2022-10-18T11:19:37;47.23;;;28.63;;
3873;SDS011;1952;50.872;6.692;2022-10-18T11:22:12;45.50;;;30.47;;
3873;SDS011;1952;50.872;6.692;2022-10-18T11:24:45;44.60;;;28.40;;
3873;SDS011;1952;50.872;6.692;2022-10-18T11:44:13;29.80;;;25.17;;
3873;SDS011;1952;50.872;6.692;2022-10-18T11:47:03;24.97;;;20.90;;
3873;SDS011;1952;50.872;6.692;2022-10-18T11:50:11;31.40;;;24.57;;
3873;SDS011;1952;50.872;6.692;2022-10-18T11:53:16;28.20;;;23.53;;
3873;SDS011;1952;50.872;6.692;2022-10-18T12:33:01;24.50;;;17.93;;
3873;SDS011;1952;50.872;6.692;2022-10-18T12:35:55;21.43;;;18.43;;
3873;SDS011;1952;50.872;6.692;2022-10-18T12:38:32;19.67;;;17.13;;
3873;SDS011;1952;50.872;6.692;2022-10-18T12:41:02;19.60;;;16.27;;
3873;SDS011;1952;50.872;6.692;2022-10-18T12:43:32;19.43;;;16.90;;
3873;SDS011;1952;50.872;6.692;2022-10-18T12:46:07;17.63;;;15.67;;
3873;SDS011;1952;50.872;6.692;2022-10-18T12:49:01;19.97;;;16.30;;
3873;SDS011;1952;50.872;6.692;2022-10-18T12:51:31;20.23;;;16.37;;
3873;SDS011;1952;50.872;6.692;2022-10-18T12:54:08;21.23;;;16.60;;
3873;SDS011;1952;50.872;6.692;2022-10-18T12:56:40;15.10;;;13.50;;
3873;SDS011;1952;50.872;6.692;2022-10-18T13:02:19;17.30;;;15.03;;
3873;SDS011;1952;50.872;6.692;2022-10-18T13:04:51;19.43;;;16.47;;
3873;SDS011;1952;50.872;6.692;2022-10-18T13:07:35;23.90;;;17.07;;
3873;SDS011;1952;50.872;6.692;2022-10-18T13:16:20;18.37;;;15.57;;
3873;SDS011;1952;50.872;6.692;2022-10-18T13:19:06;19.20;;;16.13;;
3873;SDS011;1952;50.872;6.692;2022-10-18T13:21:47;24.23;;;17.70;;
3873;SDS011;1952;50.872;6.692;2022-10-18T13:24:24;24.87;;;16.17;;
3873;SDS011;1952;50.872;6.692;2022-10-18T13:27:02;18.93;;;15.23;;
3873;SDS011;1952;50.872;6.692;2022-10-18T13:33:17;17.57;;;14.23;;
3873;SDS011;1952;50.872;6.692;2022-10-18T13:35:53;20.03;;;15.30;;
3873;SDS011;1952;50.872;6.692;2022-10-18T13:38:37;16.83;;;14.13;;
3873;SDS011;1952;50.872;6.692;2022-10-18T13:41:14;17.00;;;13.47;;
3873;SDS011;1952;50.872;6.692;2022-10-18T13:50:22;14.33;;;12.83;;
3873;SDS011;1952;50.872;6.692;2022-10-18T13:53:31;17.63;;;13.00;;
3873;SDS011;1952;50.872;6.692;2022-10-18T14:00:00;13.37;;;9.87;;
3873;SDS011;1952;50.872;6.692;2022-10-18T14:05:50;16.67;;;10.00;;
3873;SDS011;1952;50.872;6.692;2022-10-18T14:08:28;10.47;;;8.80;;
3873;SDS011;1952;50.872;6.692;2022-10-18T14:11:13;13.17;;;9.20;;
3873;SDS011;1952;50.872;6.692;2022-10-18T14:13:47;10.03;;;8.37;;
3873;SDS011;1952;50.872;6.692;2022-10-18T14:16:25;15.30;;;10.07;;
3873;SDS011;1952;50.872;6.692;2022-10-18T14:19:04;10.60;;;9.60;;
3873;SDS011;1952;50.872;6.692;2022-10-18T14:22:09;11.03;;;8.63;;
3873;SDS011;1952;50.872;6.692;2022-10-18T14:24:43;8.90;;;8.00;;
3873;SDS011;1952;50.872;6.692;2022-10-18T14:27:14;7.77;;;7.07;;
3873;SDS011;1952;50.872;6.692;2022-10-18T14:29:49;8.90;;;7.97;;
3873;SDS011;1952;50.872;6.692;2022-10-18T14:32:23;10.13;;;7.63;;
3873;SDS011;1952;50.872;6.692;2022-10-18T14:34:52;9.93;;;7.83;;
3873;SDS011;1952;50.872;6.692;2022-10-18T14:37:27;10.13;;;8.73;;
3873;SDS011;1952;50.872;6.692;2022-10-18T14:39:56;11.30;;;8.77;;
3873;SDS011;1952;50.872;6.692;2022-10-18T14:42:32;10.37;;;9.07;;
3873;SDS011;1952;50.872;6.692;2022-10-18T14:45:15;9.80;;;7.70;;
3873;SDS011;1952;50.872;6.692;2022-10-18T14:47:44;9.67;;;7.70;;
3873;SDS011;1952;50.872;6.692;2022-10-18T14:50:21;13.20;;;8.67;;
3873;SDS011;1952;50.872;6.692;2022-10-18T14:52:56;10.67;;;8.10;;
3873;SDS011;1952;50.872;6.692;2022-10-18T14:55:25;10.10;;;8.50;;
3873;SDS011;1952;50.872;6.692;2022-10-18T14:57:54;11.53;;;8.00;;
3873;SDS011;1952;50.872;6.692;2022-10-18T15:00:25;10.43;;;8.20;;
3873;SDS011;1952;50.872;6.692;2022-10-18T15:02:57;9.10;;;8.20;;
3873;SDS011;1952;50.872;6.692;2022-10-18T15:05:26;9.90;;;8.90;;
3873;SDS011;1952;50.872;6.692;2022-10-18T15:07:55;11.70;;;10.17;;
3873;SDS011;1952;50.872;6.692;2022-10-18T15:10:31;15.83;;;10.97;;
3873;SDS011;1952;50.872;6.692;2022-10-18T15:13:03;10.10;;;9.10;;
3873;SDS011;1952;50.872;6.692;2022-10-18T15:18:33;13.20;;;11.03;;
3873;SDS011;1952;50.872;6.692;2022-10-18T15:21:08;14.93;;;11.13;;
3873;SDS011;1952;50.872;6.692;2022-10-18T15:23:37;12.93;;;11.10;;
3873;SDS011;1952;50.872;6.692;2022-10-18T15:26:06;10.40;;;9.40;;
3873;SDS011;1952;50.872;6.692;2022-10-18T15:28:39;16.87;;;12.30;;
3873;SDS011;1952;50.872;6.692;2022-10-18T15:31:21;14.53;;;10.53;;
3873;SDS011;1952;50.872;6.692;2022-10-18T15:34:07;14.00;;;12.27;;
3873;SDS011;1952;50.872;6.692;2022-10-18T15:36:42;18.23;;;12.30;;
3873;SDS011;1952;50.872;6.692;2022-10-18T15:39:20;16.73;;;11.70;;
3873;SDS011;1952;50.872;6.692;2022-10-18T15:42:03;17.33;;;14.10;;
3873;SDS011;1952;50.872;6.692;2022-10-18T15:44:31;14.97;;;11.70;;
3873;SDS011;1952;50.872;6.692;2022-10-18T15:49:50;18.33;;;12.13;;
3873;SDS011;1952;50.872;6.692;2022-10-18T15:52:35;12.63;;;11.37;;
3873;SDS011;1952;50.872;6.692;2022-10-18T15:58:01;15.20;;;11.00;;
3873;SDS011;1952;50.872;6.692;2022-10-18T16:00:35;14.20;;;10.70;;
3873;SDS011;1952;50.872;6.692;2022-10-18T16:03:05;18.27;;;12.90;;
3873;SDS011;1952;50.872;6.692;2022-10-18T16:05:35;17.07;;;11.00;;
3873;SDS011;1952;50.872;6.692;2022-10-18T16:08:04;15.87;;;11.33;;
3873;SDS011;1952;50.872;6.692;2022-10-18T16:10:34;19.60;;;12.63;;
3873;SDS011;1952;50.872;6.692;2022-10-18T16:13:03;17.10;;;11.53;;
3873;SDS011;1952;50.872;6.692;2022-10-18T16:15:48;18.57;;;11.37;;
3873;SDS011;1952;50.872;6.692;2022-10-18T16:18:31;22.77;;;11.93;;
3873;SDS011;1952;50.872;6.692;2022-10-18T16:21:03;14.67;;;11.00;;
3873;SDS011;1952;50.872;6.692;2022-10-18T16:23:37;17.23;;;11.40;;
3873;SDS011;1952;50.872;6.692;2022-10-18T16:26:29;16.10;;;10.90;;
3873;SDS011;1952;50.872;6.692;2022-10-18T16:28:59;20.83;;;12.23;;
3873;SDS011;1952;50.872;6.692;2022-10-18T16:31:33;22.80;;;13.43;;
3873;SDS011;1952;50.872;6.692;2022-10-18T16:34:03;19.23;;;13.00;;
3873;SDS011;1952;50.872;6.692;2022-10-18T16:56:38;18.97;;;16.23;;
3873;SDS011;1952;50.872;6.692;2022-10-18T16:59:34;21.90;;;16.93;;
3873;SDS011;1952;50.872;6.692;2022-10-18T17:02:30;25.73;;;18.47;;
3873;SDS011;1952;50.872;6.692;2022-10-18T17:05:26;19.80;;;14.50;;
3873;SDS011;1952;50.872;6.692;2022-10-18T17:08:24;17.77;;;12.57;;
3873;SDS011;1952;50.872;6.692;2022-10-18T17:41:21;16.83;;;12.70;;
3873;SDS011;1952;50.872;6.692;2022-10-18T17:43:50;24.40;;;17.40;;
3873;SDS011;1952;50.872;6.692;2022-10-18T17:46:19;21.50;;;14.07;;
3873;SDS011;1952;50.872;6.692;2022-10-18T17:48:56;18.93;;;13.90;;
3873;SDS011;1952;50.872;6.692;2022-10-18T17:51:26;17.50;;;14.90;;
3873;SDS011;1952;50.872;6.692;2022-10-18T17:53:57;19.57;;;14.03;;
3873;SDS011;1952;50.872;6.692;2022-10-18T18:38:31;18.80;;;14.93;;
3873;SDS011;1952;50.872;6.692;2022-10-18T18:41:17;27.60;;;21.70;;
3873;SDS011;1952;50.872;6.692;2022-10-18T18:44:16;33.50;;;21.20;;
3873;SDS011;1952;50.872;6.692;2022-10-18T18:47:12;27.97;;;22.03;;
3873;SDS011;1952;50.872;6.692;2022-10-18T18:49:54;27.47;;;20.00;;
3873;SDS011;1952;50.872;6.692;2022-10-18T18:55:41;23.53;;;15.87;;
3873;SDS011;1952;50.872;6.692;2022-10-18T18:58:38;27.17;;;19.17;;
3873;SDS011;1952;50.872;6.692;2022-10-18T19:07:47;27.20;;;18.30;;
3873;SDS011;1952;50.872;6.692;2022-10-18T19:10:23;23.20;;;17.57;;
3873;SDS011;1952;50.872;6.692;2022-10-18T19:13:33;32.40;;;17.60;;
3873;SDS011;1952;50.872;6.692;2022-10-18T19:16:09;23.20;;;16.30;;
3873;SDS011;1952;50.872;6.692;2022-10-18T19:18:50;30.13;;;22.60;;
3873;SDS011;1952;50.872;6.692;2022-10-18T19:21:28;26.07;;;19.23;;
3873;SDS011;1952;50.872;6.692;2022-10-18T19:24:23;27.77;;;17.73;;
3873;SDS011;1952;50.872;6.692;2022-10-18T19:27:06;23.07;;;15.60;;
3873;SDS011;1952;50.872;6.692;2022-10-18T19:29:51;23.07;;;18.57;;
3873;SDS011;1952;50.872;6.692;2022-10-18T19:32:35;24.57;;;18.20;;
3873;SDS011;1952;50.872;6.692;2022-10-18T19:35:31;18.33;;;14.53;;
3873;SDS011;1952;50.872;6.692;2022-10-18T19:38:13;27.30;;;19.17;;
3873;SDS011;1952;50.872;6.692;2022-10-18T19:40:59;28.63;;;20.77;;
3873;SDS011;1952;50.872;6.692;2022-10-18T19:43:44;30.07;;;22.23;;
3873;SDS011;1952;50.872;6.692;2022-10-18T19:46:22;23.13;;;17.97;;
3873;SDS011;1952;50.872;6.692;2022-10-18T19:48:58;24.30;;;18.87;;
3873;SDS011;1952;50.872;6.692;2022-10-18T19:51:30;27.43;;;22.07;;
3873;SDS011;1952;50.872;6.692;2022-10-18T19:53:58;24.67;;;19.17;;
3873;SDS011;1952;50.872;6.692;2022-10-18T19:56:30;24.20;;;19.13;;
3873;SDS011;1952;50.872;6.692;2022-10-18T19:59:05;22.93;;;15.80;;
3873;SDS011;1952;50.872;6.692;2022-10-18T20:02:01;23.00;;;18.40;;
3873;SDS011;1952;50.872;6.692;2022-10-18T20:04:57;26.17;;;17.83;;
3873;SDS011;1952;50.872;6.692;2022-10-18T20:07:28;19.50;;;15.13;;
3873;SDS011;1952;50.872;6.692;2022-10-18T20:10:14;24.13;;;15.50;;
3873;SDS011;1952;50.872;6.692;2022-10-18T20:12:47;23.87;;;16.47;;
3873;SDS011;1952;50.872;6.692;2022-10-18T20:15:16;27.23;;;18.20;;
3873;SDS011;1952;50.872;6.692;2022-10-18T20:17:45;19.63;;;16.53;;
3873;SDS011;1952;50.872;6.692;2022-10-18T20:20:27;25.97;;;17.80;;
3873;SDS011;1952;50.872;6.692;2022-10-18T20:22:59;24.43;;;17.70;;
3873;SDS011;1952;50.872;6.692;2022-10-18T20:25:33;22.70;;;18.27;;
3873;SDS011;1952;50.872;6.692;2022-10-18T20:33:52;21.27;;;15.33;;
3873;SDS011;1952;50.872;6.692;2022-10-18T20:36:27;23.37;;;14.30;;
3873;SDS011;1952;50.872;6.692;2022-10-18T20:38:57;19.13;;;15.40;;
3873;SDS011;1952;50.872;6.692;2022-10-18T20:41:28;24.30;;;19.93;;
3873;SDS011;1952;50.872;6.692;2022-10-18T20:43:57;22.30;;;15.17;;
3873;SDS011;1952;50.872;6.692;2022-10-18T20:46:32;22.10;;;15.60;;
3873;SDS011;1952;50.872;6.692;2022-10-18T20:49:02;22.33;;;15.57;;
3873;SDS011;1952;50.872;6.692;2022-10-18T20:51:33;30.93;;;17.10;;
3873;SDS011;1952;50.872;6.692;2022-10-18T20:54:06;25.97;;;16.90;;
3873;SDS011;1952;50.872;6.692;2022-10-18T20:56:40;21.57;;;16.70;;
3873;SDS011;1952;50.872;6.692;2022-10-18T20:59:09;17.47;;;15.43;;
3873;SDS011;1952;50.872;6.692;2022-10-18T21:01:39;26.17;;;16.27;;
3873;SDS011;1952;50.872;6.692;2022-10-18T21:04:11;20.23;;;14.50;;
3873;SDS011;1952;50.872;6.692;2022-10-18T21:06:42;20.07;;;14.70;;
3873;SDS011;1952;50.872;6.692;2022-10-18T21:09:40;15.50;;;12.80;;
3873;SDS011;1952;50.872;6.692;2022-10-18T21:12:19;23.17;;;15.20;;
3873;SDS011;1952;50.872;6.692;2022-10-18T21:14:51;17.63;;;14.90;;
3873;SDS011;1952;50.872;6.692;2022-10-18T21:17:20;18.87;;;12.07;;
3873;SDS011;1952;50.872;6.692;2022-10-18T21:20:02;23.97;;;15.90;;
3873;SDS011;1952;50.872;6.692;2022-10-18T21:22:45;20.53;;;15.60;;
3873;SDS011;1952;50.872;6.692;2022-10-18T21:25:19;20.93;;;15.00;;
3873;SDS011;1952;50.872;6.692;2022-10-18T21:27:49;25.80;;;14.57;;
3873;SDS011;1952;50.872;6.692;2022-10-18T21:30:24;18.30;;;12.60;;
3873;SDS011;1952;50.872;6.692;2022-10-18T21:32:53;18.00;;;13.13;;
3873;SDS011;1952;50.872;6.692;2022-10-18T21:35:37;13.87;;;11.97;;
3873;SDS011;1952;50.872;6.692;2022-10-18T21:38:07;17.10;;;12.20;;
3873;SDS011;1952;50.872;6.692;2022-10-18T21:40:41;18.23;;;13.07;;
3873;SDS011;1952;50.872;6.692;2022-10-18T21:43:10;19.50;;;14.53;;
3873;SDS011;1952;50.872;6.692;2022-10-18T21:45:40;21.23;;;14.77;;
3873;SDS011;1952;50.872;6.692;2022-10-18T21:48:08;18.80;;;15.50;;
3873;SDS011;1952;50.872;6.692;2022-10-18T21:50:45;23.03;;;15.50;;
3873;SDS011;1952;50.872;6.692;2022-10-18T21:53:19;37.60;;;14.40;;
3873;SDS011;1952;50.872;6.692;2022-10-18T21:55:48;31.60;;;17.00;;
3873;SDS011;1952;50.872;6.692;2022-10-18T21:58:32;214.60;;;31.07;;
3873;SDS011;1952;50.872;6.692;2022-10-18T22:01:05;97.53;;;21.23;;
3873;SDS011;1952;50.872;6.692;2022-10-18T22:03:34;27.90;;;15.07;;
3873;SDS011;1952;50.872;6.692;2022-10-18T22:06:06;20.77;;;12.87;;
3873;SDS011;1952;50.872;6.692;2022-10-18T22:08:44;23.90;;;14.10;;
3873;SDS011;1952;50.872;6.692;2022-10-18T22:11:15;14.83;;;11.90;;
3873;SDS011;1952;50.872;6.692;2022-10-18T22:13:44;29.57;;;15.80;;
3873;SDS011;1952;50.872;6.692;2022-10-18T22:16:27;18.40;;;12.83;;